Time;durP1;ratioP1;P1;durP2;ratioP2;P2;SDS_P1;SDS_P2;PMS_P1;PMS_P2;Temp;Humidity;BMP_temperature;BMP_pressure;BME280_temperature;BME280_humidity;BME280_pressure;Samples;Min_cycle;Max_cycle;Signal;HPM_P1;HPM_P2
2023/07/24 00:02:07;;;;;;;7.10;3.30;;;19.00;98.00;;;;;;5033708;28;20850;-72
2023/07/24 00:04:34;;;;;;;9.23;3.90;;;19.00;98.00;;;;;;5033430;28;20952;-72
2023/07/24 00:07:01;;;;;;;10.27;3.87;;;19.10;98.00;;;;;;5033716;28;20469;-72
2023/07/24 00:09:28;;;;;;;11.73;3.63;;;19.00;98.00;;;;;;5033276;28;20462;-72
2023/07/24 00:11:57;;;;;;;10.37;4.13;;;19.20;98.00;;;;;;5033639;28;20520;-72
2023/07/24 00:14:24;;;;;;;6.73;4.03;;;19.30;98.00;;;;;;5033325;28;20455;-71
2023/07/24 00:16:51;;;;;;;6.67;3.30;;;19.30;98.00;;;;;;5033390;28;20509;-72
2023/07/24 00:19:18;;;;;;;6.73;3.70;;;19.30;98.00;;;;;;5033699;28;20450;-72
2023/07/24 00:21:45;;;;;;;7.97;4.20;;;19.10;98.00;;;;;;5033567;28;21018;-72
2023/07/24 00:24:12;;;;;;;8.30;3.90;;;19.10;98.00;;;;;;5033298;28;20458;-72
2023/07/24 00:26:40;;;;;;;8.40;3.80;;;19.00;98.00;;;;;;5033176;28;20512;-72
2023/07/24 00:29:08;;;;;;;6.93;3.60;;;18.90;98.00;;;;;;5033217;28;20521;-72
2023/07/24 00:31:35;;;;;;;8.27;3.50;;;18.90;98.00;;;;;;5033126;28;20958;-72
2023/07/24 00:34:02;;;;;;;5.80;3.27;;;18.90;98.00;;;;;;5033179;28;20817;-72
2023/07/24 00:36:29;;;;;;;10.87;4.30;;;19.00;98.00;;;;;;5032201;28;20486;-72
2023/07/24 00:38:56;;;;;;;8.73;3.30;;;19.30;98.00;;;;;;5032891;28;20462;-72
2023/07/24 00:41:23;;;;;;;6.43;3.30;;;19.30;98.00;;;;;;5032905;28;20450;-72
2023/07/24 00:43:50;;;;;;;8.97;4.10;;;19.30;98.00;;;;;;5033084;28;20458;-72
2023/07/24 00:46:19;;;;;;;8.87;4.23;;;19.30;98.00;;;;;;5032833;28;20463;-72
2023/07/24 00:48:46;;;;;;;9.77;4.70;;;19.20;98.00;;;;;;5032863;28;20465;-72
2023/07/24 00:51:13;;;;;;;6.97;3.70;;;19.10;98.00;;;;;;5032747;28;20459;-72
2023/07/24 00:53:42;;;;;;;7.20;3.80;;;19.10;98.00;;;;;;5032736;28;20474;-72
2023/07/24 00:56:09;;;;;;;7.90;3.73;;;19.10;98.00;;;;;;5032659;28;20455;-72
2023/07/24 00:58:38;;;;;;;7.90;3.70;;;19.20;98.00;;;;;;5032712;28;20454;-74
2023/07/24 01:01:05;;;;;;;7.07;3.50;;;19.10;98.00;;;;;;5032608;28;20459;-72
2023/07/24 01:03:39;;;;;;;7.67;3.83;;;19.20;98.00;;;;;;5033171;28;20457;-72
2023/07/24 01:06:06;;;;;;;7.73;3.53;;;19.30;98.00;;;;;;5033207;28;20466;-72
2023/07/24 01:08:33;;;;;;;8.87;3.70;;;19.20;98.00;;;;;;5033100;28;20454;-72
2023/07/24 01:11:05;;;;;;;8.70;3.50;;;19.10;98.00;;;;;;5033032;28;20455;-72
2023/07/24 01:13:37;;;;;;;7.27;3.33;;;19.10;98.00;;;;;;5033209;28;20485;-72
2023/07/24 01:16:09;;;;;;;7.17;3.80;;;18.90;98.00;;;;;;5032814;28;20458;-72
2023/07/24 01:18:39;;;;;;;8.13;4.17;;;19.00;98.00;;;;;;5032698;28;20473;-72
2023/07/24 01:21:10;;;;;;;7.27;3.90;;;18.80;98.00;;;;;;5032587;28;20477;-72
2023/07/24 01:23:50;;;;;;;8.57;3.53;;;18.80;98.00;;;;;;5032655;28;20550;-72
2023/07/24 01:26:20;;;;;;;6.93;3.70;;;18.70;98.00;;;;;;5032666;28;20454;-72
2023/07/24 01:28:47;;;;;;;6.37;3.07;;;18.70;98.00;;;;;;5014904;28;20458;-72
2023/07/24 01:31:16;;;;;;;8.97;3.87;;;18.70;98.00;;;;;;5032657;28;20470;-72
2023/07/24 01:33:43;;;;;;;9.80;3.77;;;18.80;98.00;;;;;;5032366;28;20485;-72
2023/07/24 01:36:11;;;;;;;9.57;3.90;;;19.00;98.00;;;;;;5032316;28;20814;-71
2023/07/24 01:38:39;;;;;;;9.80;4.23;;;19.10;98.00;;;;;;5032314;28;20459;-72
2023/07/24 01:41:07;;;;;;;6.30;3.70;;;18.90;98.00;;;;;;5032355;28;20458;-72
2023/07/24 01:43:35;;;;;;;6.53;3.80;;;18.90;98.00;;;;;;5032383;28;20541;-72
2023/07/24 01:46:02;;;;;;;7.30;3.83;;;18.80;98.00;;;;;;5032222;28;20458;-72
2023/07/24 01:48:29;;;;;;;8.67;4.10;;;18.80;98.00;;;;;;5032078;28;20451;-72
2023/07/24 01:50:56;;;;;;;9.10;3.97;;;18.80;98.00;;;;;;5032113;28;20457;-72
2023/07/24 01:53:23;;;;;;;9.60;4.47;;;18.60;98.00;;;;;;5032171;28;20457;-72
2023/07/24 01:55:50;;;;;;;6.80;3.57;;;18.50;98.00;;;;;;5032187;28;20461;-71
2023/07/24 01:58:17;;;;;;;7.97;3.97;;;18.40;98.00;;;;;;5032044;28;21008;-72
2023/07/24 02:00:48;;;;;;;14.60;3.87;;;18.40;98.00;;;;;;5032116;28;20463;-72
2023/07/24 02:03:15;;;;;;;6.97;3.80;;;18.50;98.00;;;;;;5032422;28;20540;-72
2023/07/24 02:05:42;;;;;;;6.97;3.37;;;18.40;98.00;;;;;;5032006;28;20462;-72
2023/07/24 02:08:09;;;;;;;7.73;3.40;;;18.30;98.00;;;;;;5031985;28;21146;-72
2023/07/24 02:10:39;;;;;;;8.23;4.00;;;18.20;98.00;;;;;;5031710;28;20459;-72
2023/07/24 02:13:07;;;;;;;7.13;3.23;;;18.10;98.00;;;;;;5031619;28;20545;-72
2023/07/24 02:15:34;;;;;;;7.60;3.93;;;18.20;98.00;;;;;;5031696;28;20454;-72
2023/07/24 02:18:03;;;;;;;9.80;3.60;;;18.10;98.00;;;;;;5031861;28;20509;-71
2023/07/24 02:20:30;;;;;;;6.10;3.47;;;18.10;98.00;;;;;;5031605;28;20450;-72
2023/07/24 02:22:57;;;;;;;8.00;3.80;;;18.30;98.00;;;;;;5031886;28;20451;-72
2023/07/24 02:25:24;;;;;;;8.40;3.80;;;18.50;98.00;;;;;;5013964;28;21018;-72
2023/07/24 02:27:52;;;;;;;9.63;3.93;;;18.50;98.00;;;;;;5031736;28;20509;-72
2023/07/24 02:30:19;;;;;;;8.40;3.53;;;18.40;98.00;;;;;;5031619;28;20461;-72
2023/07/24 02:32:46;;;;;;;8.57;3.97;;;18.30;98.00;;;;;;5031806;28;20533;-72
2023/07/24 02:35:14;;;;;;;9.73;4.07;;;18.20;98.00;;;;;;5031532;28;20461;-72
2023/07/24 02:37:41;;;;;;;6.50;3.60;;;18.10;98.00;;;;;;5030942;28;20478;-72
2023/07/24 02:40:10;;;;;;;9.07;3.70;;;18.10;98.00;;;;;;5031895;28;20821;-72
2023/07/24 02:42:37;;;;;;;7.20;3.90;;;18.00;98.00;;;;;;5014196;28;20465;-72
2023/07/24 02:45:05;;;;;;;8.10;3.60;;;17.80;98.00;;;;;;5031503;28;20451;-71
2023/07/24 02:47:32;;;;;;;7.93;3.50;;;17.70;98.00;;;;;;5031577;28;20509;-71
2023/07/24 02:49:59;;;;;;;6.87;3.63;;;17.60;98.00;;;;;;5031810;28;20458;-72
2023/07/24 02:52:27;;;;;;;6.40;3.23;;;17.60;98.00;;;;;;5031723;28;20454;-71
2023/07/24 02:54:55;;;;;;;6.53;3.50;;;17.50;98.00;;;;;;5031607;28;20455;-72
2023/07/24 02:57:22;;;;;;;8.50;3.60;;;17.50;98.00;;;;;;5031638;28;20482;-72
2023/07/24 02:59:49;;;;;;;6.73;3.10;;;17.50;98.00;;;;;;5032635;28;20454;-71
2023/07/24 03:02:16;;;;;;;8.50;3.80;;;17.50;98.00;;;;;;5035555;28;20528;-72
2023/07/24 03:04:44;;;;;;;13.10;5.80;;;17.40;98.00;;;;;;5035164;28;21124;-72
2023/07/24 03:07:11;;;;;;;10.27;5.13;;;17.40;98.00;;;;;;5035325;28;20960;-72
2023/07/24 03:09:40;;;;;;;5.60;3.30;;;17.30;98.00;;;;;;5035232;28;20952;-72
2023/07/24 03:12:07;;;;;;;7.90;3.67;;;17.30;98.00;;;;;;5034773;28;20461;-72
2023/07/24 03:14:34;;;;;;;11.43;4.17;;;17.30;98.00;;;;;;5035093;28;20979;-71
2023/07/24 03:17:01;;;;;;;7.63;4.00;;;17.20;98.00;;;;;;5017121;28;20459;-72
2023/07/24 03:19:28;;;;;;;8.30;3.77;;;17.20;98.00;;;;;;5034996;28;20849;-71
2023/07/24 03:21:55;;;;;;;8.17;3.70;;;17.20;98.00;;;;;;5035098;28;20462;-71
2023/07/24 03:24:22;;;;;;;9.33;3.87;;;17.10;98.00;;;;;;5035106;28;20517;-72
2023/07/24 03:26:51;;;;;;;7.83;4.47;;;17.20;98.00;;;;;;5034591;28;20442;-71
2023/07/24 03:29:18;;;;;;;9.70;3.93;;;17.30;98.00;;;;;;5034924;28;20454;-72
2023/07/24 03:31:46;;;;;;;8.03;3.70;;;17.20;98.00;;;;;;5034859;28;20462;-72
2023/07/24 03:34:13;;;;;;;9.50;3.87;;;17.00;98.00;;;;;;5035159;28;20459;-71
2023/07/24 03:36:43;;;;;;;8.77;4.13;;;17.10;98.00;;;;;;5034784;28;20462;-71
2023/07/24 03:39:10;;;;;;;7.10;4.10;;;17.20;98.00;;;;;;5035115;28;20584;-72
2023/07/24 03:41:40;;;;;;;8.20;3.83;;;17.30;98.00;;;;;;5034670;28;21010;-71
2023/07/24 03:44:09;;;;;;;6.33;3.10;;;17.50;98.00;;;;;;5034800;28;20553;-72
2023/07/24 03:46:36;;;;;;;8.27;3.83;;;17.60;98.00;;;;;;5034614;28;20466;-72
2023/07/24 03:49:03;;;;;;;6.20;3.63;;;17.50;98.00;;;;;;5034647;28;20466;-71
2023/07/24 03:51:30;;;;;;;7.53;3.53;;;17.30;98.00;;;;;;5034619;28;20462;-71
2023/07/24 03:53:57;;;;;;;7.17;3.70;;;17.20;98.00;;;;;;5034565;28;20455;-71
2023/07/24 03:56:25;;;;;;;7.83;3.53;;;17.20;98.00;;;;;;5034382;28;20466;-71
2023/07/24 03:58:53;;;;;;;6.73;3.70;;;17.10;98.00;;;;;;5034484;28;21019;-71
2023/07/24 04:01:22;;;;;;;9.83;4.20;;;17.20;98.00;;;;;;5034009;28;20547;-71
2023/07/24 04:03:49;;;;;;;9.70;4.07;;;17.10;98.00;;;;;;5034216;28;20465;-71
2023/07/24 04:06:16;;;;;;;13.80;4.30;;;17.00;98.00;;;;;;5034253;28;20524;-71
2023/07/24 04:08:44;;;;;;;9.63;4.20;;;16.90;98.00;;;;;;5034109;28;20459;-71
2023/07/24 04:11:12;;;;;;;8.27;4.37;;;16.90;98.00;;;;;;5032843;28;20943;-71
2023/07/24 04:13:38;;;;;;;7.60;3.73;;;17.00;98.00;;;;;;5033948;28;20459;-71
2023/07/24 04:16:06;;;;;;;13.33;4.97;;;17.10;98.00;;;;;;5034077;28;20455;-71
2023/07/24 04:18:34;;;;;;;10.30;4.43;;;17.10;98.00;;;;;;5033800;28;20482;-71
2023/07/24 04:21:09;;;;;;;8.97;3.70;;;17.10;98.00;;;;;;5034085;28;20466;-71
2023/07/24 04:23:36;;;;;;;6.80;3.90;;;17.40;98.00;;;;;;5033992;28;20454;-71
2023/07/24 04:26:03;;;;;;;9.93;3.73;;;17.50;98.00;;;;;;5033866;28;20450;-71
2023/07/24 04:28:30;;;;;;;8.40;4.00;;;17.50;98.00;;;;;;5033972;28;20450;-71
2023/07/24 04:31:00;;;;;;;9.73;3.60;;;17.50;98.00;;;;;;5033820;28;20458;-71
2023/07/24 04:33:27;;;;;;;8.53;3.97;;;17.50;98.00;;;;;;5034024;28;20455;-71
2023/07/24 04:35:56;;;;;;;6.70;3.73;;;17.50;98.00;;;;;;5033897;28;20951;-71
2023/07/24 04:38:23;;;;;;;7.10;3.50;;;17.60;98.00;;;;;;5033860;28;20573;-71
2023/07/24 04:40:50;;;;;;;9.20;3.77;;;17.60;98.00;;;;;;5033769;28;20454;-72
2023/07/24 04:43:17;;;;;;;8.47;4.10;;;17.70;98.00;;;;;;5033845;28;20501;-72
2023/07/24 04:45:45;;;;;;;7.80;3.70;;;17.70;98.00;;;;;;5033713;28;20972;-72
2023/07/24 04:48:12;;;;;;;7.90;4.10;;;17.80;98.00;;;;;;5033706;28;20458;-71
2023/07/24 04:50:39;;;;;;;10.80;4.17;;;17.80;98.00;;;;;;5033638;28;20976;-72
2023/07/24 04:53:08;;;;;;;7.40;3.60;;;17.90;98.00;;;;;;5033659;28;20461;-72
2023/07/24 04:55:35;;;;;;;7.13;3.33;;;18.00;98.00;;;;;;5033510;28;20458;-72
2023/07/24 04:58:02;;;;;;;9.00;4.53;;;18.00;98.00;;;;;;5015585;28;20490;-72
2023/07/24 05:00:29;;;;;;;8.00;4.17;;;18.20;98.00;;;;;;5033227;28;20462;-71
2023/07/24 05:02:56;;;;;;;8.70;4.50;;;18.20;98.00;;;;;;5033106;28;20470;-72
2023/07/24 05:05:23;;;;;;;10.40;4.07;;;18.30;98.00;;;;;;5033099;28;20933;-72
2023/07/24 05:07:50;;;;;;;10.03;4.30;;;18.50;98.00;;;;;;5033029;28;20458;-72
2023/07/24 05:10:18;;;;;;;12.90;4.77;;;18.50;98.00;;;;;;5033013;28;20466;-72
2023/07/24 05:12:46;;;;;;;11.67;4.67;;;18.60;98.00;;;;;;5032909;28;20801;-72
2023/07/24 05:15:16;;;;;;;7.50;3.50;;;18.60;98.00;;;;;;5032941;28;20945;-72
2023/07/24 05:17:44;;;;;;;8.63;4.33;;;18.80;98.00;;;;;;5032810;28;20540;-72
2023/07/24 05:20:12;;;;;;;7.90;3.90;;;18.80;98.00;;;;;;5032954;28;20455;-72
2023/07/24 05:22:39;;;;;;;9.33;4.30;;;18.90;98.00;;;;;;5032374;28;20451;-72
2023/07/24 05:25:07;;;;;;;6.27;3.87;;;18.90;98.00;;;;;;5032853;28;20466;-72
2023/07/24 05:27:36;;;;;;;8.43;4.27;;;18.90;98.00;;;;;;5032624;28;20982;-72
2023/07/24 05:30:03;;;;;;;5.80;3.57;;;18.80;98.00;;;;;;5032537;28;20459;-72
2023/07/24 05:32:30;;;;;;;9.90;4.37;;;19.00;98.00;;;;;;5032619;28;20462;-72
2023/07/24 05:35:00;;;;;;;10.60;4.37;;;18.90;98.00;;;;;;5032767;28;20455;-72
2023/07/24 05:37:27;;;;;;;11.13;4.30;;;19.10;98.00;;;;;;5033028;28;20464;-72
2023/07/24 05:39:54;;;;;;;9.20;4.30;;;19.10;98.00;;;;;;5032683;28;20512;-72
2023/07/24 05:42:21;;;;;;;9.20;4.20;;;19.10;98.00;;;;;;5032881;28;20461;-72
2023/07/24 05:44:49;;;;;;;10.63;5.03;;;19.20;98.00;;;;;;5032498;28;20455;-72
2023/07/24 05:47:17;;;;;;;9.37;4.50;;;19.30;98.00;;;;;;5032424;28;20517;-72
2023/07/24 05:49:44;;;;;;;8.60;3.80;;;19.40;98.00;;;;;;5032535;28;21010;-72
2023/07/24 05:52:11;;;;;;;6.80;3.70;;;19.50;98.00;;;;;;5032260;28;20454;-72
2023/07/24 05:54:38;;;;;;;11.70;4.47;;;19.50;98.00;;;;;;5032117;28;20454;-72
2023/07/24 05:57:07;;;;;;;8.87;4.13;;;19.60;98.00;;;;;;5032244;28;20461;-72
2023/07/24 05:59:34;;;;;;;8.83;4.50;;;19.60;98.00;;;;;;5014776;28;21001;-72
2023/07/24 06:02:02;;;;;;;8.07;3.93;;;19.60;98.00;;;;;;5031889;28;20471;-72
2023/07/24 06:04:29;;;;;;;7.07;4.00;;;19.60;98.00;;;;;;5032368;28;20614;-73
2023/07/24 06:06:56;;;;;;;8.43;4.30;;;19.70;98.00;;;;;;5032212;28;20877;-72
2023/07/24 06:09:23;;;;;;;8.17;4.13;;;19.80;98.00;;;;;;5032144;28;20458;-72
2023/07/24 06:11:51;;;;;;;8.73;4.37;;;19.70;98.00;;;;;;5031983;28;20465;-72
2023/07/24 06:14:21;;;;;;;8.87;4.23;;;19.70;98.00;;;;;;5032045;28;20462;-72
2023/07/24 06:16:48;;;;;;;10.03;4.00;;;19.70;98.00;;;;;;5031894;28;20568;-72
2023/07/24 06:19:17;;;;;;;12.50;4.80;;;19.60;98.00;;;;;;5031979;28;20490;-73
2023/07/24 06:21:44;;;;;;;7.53;4.10;;;19.80;98.00;;;;;;5031673;28;20462;-72
2023/07/24 06:24:12;;;;;;;11.63;4.30;;;19.90;98.00;;;;;;5031995;28;20451;-72
2023/07/24 06:26:39;;;;;;;9.07;4.13;;;19.90;98.00;;;;;;5031817;28;20929;-65
2023/07/24 06:29:06;;;;;;;7.77;4.13;;;20.00;98.00;;;;;;5032023;28;20623;-65
2023/07/24 06:31:35;;;;;;;10.53;4.30;;;19.90;98.00;;;;;;5031850;28;20461;-66
2023/07/24 06:34:02;;;;;;;8.03;4.27;;;19.90;98.00;;;;;;5031906;28;20458;-65
2023/07/24 06:36:30;;;;;;;8.93;4.33;;;19.80;98.00;;;;;;5036046;28;20830;-65
2023/07/24 06:38:57;;;;;;;11.43;4.73;;;19.80;98.00;;;;;;5036096;28;20482;-65
2023/07/24 06:41:25;;;;;;;7.63;4.10;;;19.70;98.00;;;;;;5035971;28;20458;-65
2023/07/24 06:43:52;;;;;;;9.30;4.20;;;19.70;98.00;;;;;;5036045;28;20458;-65
2023/07/24 06:46:19;;;;;;;10.17;4.30;;;19.70;98.00;;;;;;5035536;28;20454;-66
2023/07/24 06:48:46;;;;;;;7.70;3.10;;;19.70;98.00;;;;;;5035866;28;20557;-66
2023/07/24 06:51:13;;;;;;;7.10;3.43;;;19.90;98.00;;;;;;5035433;28;20458;-66
2023/07/24 06:53:41;;;;;;;7.33;4.17;;;20.20;98.00;;;;;;5035575;28;20457;-66
2023/07/24 06:56:08;;;;;;;5.63;2.80;;;20.50;98.00;;;;;;5035720;28;20458;-66
2023/07/24 06:58:35;;;;;;;7.00;3.93;;;20.70;98.00;;;;;;5035447;28;21129;-66
2023/07/24 07:01:06;;;;;;;8.60;4.00;;;20.90;98.00;;;;;;5035313;28;20466;-66
2023/07/24 07:03:34;;;;;;;6.70;3.80;;;21.00;98.00;;;;;;5017995;28;20462;-66
2023/07/24 07:06:02;;;;;;;6.00;3.30;;;21.20;98.00;;;;;;5035370;28;20497;-66
2023/07/24 07:08:29;;;;;;;9.60;4.60;;;21.40;98.00;;;;;;5017692;28;20458;-66
2023/07/24 07:10:59;;;;;;;7.60;4.07;;;21.50;98.00;;;;;;5035443;28;20489;-66
2023/07/24 07:13:27;;;;;;;8.60;3.90;;;21.70;98.00;;;;;;5035366;28;20458;-66
2023/07/24 07:15:54;;;;;;;9.47;4.67;;;21.70;98.00;;;;;;5035110;28;20466;-66
2023/07/24 07:18:21;;;;;;;14.63;5.23;;;21.90;98.00;;;;;;5035131;28;20482;-65
2023/07/24 07:20:49;;;;;;;12.37;4.10;;;21.80;98.00;;;;;;5035042;28;20458;-66
2023/07/24 07:23:16;;;;;;;8.43;4.23;;;22.00;98.00;;;;;;5035214;28;20480;-66
2023/07/24 07:25:45;;;;;;;9.70;4.50;;;22.10;98.00;;;;;;5035012;28;20463;-66
2023/07/24 07:28:14;;;;;;;9.33;4.50;;;22.20;98.00;;;;;;5034942;28;20458;-66
2023/07/24 07:30:41;;;;;;;9.90;4.50;;;22.30;98.00;;;;;;5034221;28;20462;-65
2023/07/24 07:33:09;;;;;;;11.00;4.50;;;22.30;98.00;;;;;;5034018;28;20458;-66
2023/07/24 07:35:36;;;;;;;9.70;4.97;;;22.40;98.00;;;;;;5032859;28;20944;-66
2023/07/24 07:38:05;;;;;;;8.70;4.30;;;22.30;98.00;;;;;;5034346;28;20454;-65
2023/07/24 07:40:32;;;;;;;9.90;4.80;;;22.20;98.00;;;;;;5034023;28;20454;-65
2023/07/24 07:42:59;;;;;;;9.47;4.93;;;22.10;98.00;;;;;;5021177;28;20462;-66
2023/07/24 07:45:27;;;;;;;11.17;4.90;;;22.30;98.00;;;;;;5033549;28;20457;-66
2023/07/24 07:47:54;;;;;;;8.63;4.20;;;22.30;98.00;;;;;;5033536;28;20549;-66
2023/07/24 07:50:22;;;;;;;15.20;5.07;;;22.30;98.00;;;;;;5033741;28;20802;-65
2023/07/24 07:52:51;;;;;;;8.30;4.80;;;22.30;98.00;;;;;;5033558;28;20505;-66
2023/07/24 07:55:21;;;;;;;10.93;4.63;;;22.40;98.00;;;;;;5033643;28;20454;-66
2023/07/24 07:57:49;;;;;;;11.83;4.97;;;22.40;98.00;;;;;;5032533;28;21017;-65
2023/07/24 08:00:18;;;;;;;11.27;4.87;;;22.40;98.00;;;;;;5033364;28;21069;-66
2023/07/24 08:02:46;;;;;;;11.17;4.97;;;22.60;98.00;;;;;;5032517;28;20943;-66
2023/07/24 08:05:14;;;;;;;10.13;4.90;;;22.80;98.00;;;;;;5013634;28;20838;-66
2023/07/24 08:07:41;;;;;;;9.20;5.10;;;22.90;98.00;;;;;;5022889;28;20450;-66
2023/07/24 08:10:08;;;;;;;9.80;4.40;;;22.90;98.00;;;;;;5033055;28;20965;-66
2023/07/24 08:12:35;;;;;;;10.30;4.80;;;22.90;98.00;;;;;;5013368;28;21118;-66
2023/07/24 08:15:02;;;;;;;8.17;4.70;;;22.90;98.00;;;;;;5013385;28;20482;-66
2023/07/24 08:17:30;;;;;;;10.00;4.60;;;22.80;98.00;;;;;;5013500;28;20455;-66
2023/07/24 08:19:59;;;;;;;8.97;4.80;;;22.80;98.00;;;;;;5013243;28;20479;-65
2023/07/24 08:22:29;;;;;;;9.73;4.90;;;22.70;98.00;;;;;;5013366;28;20451;-66
2023/07/24 08:24:57;;;;;;;8.10;4.40;;;22.70;98.00;;;;;;5013331;28;20467;-65
2023/07/24 08:27:24;;;;;;;7.97;4.30;;;22.70;98.00;;;;;;5019140;28;20462;-66
2023/07/24 08:29:53;;;;;;;8.93;4.73;;;22.80;98.00;;;;;;5033130;28;20945;-66
2023/07/24 08:32:20;;;;;;;8.57;4.80;;;22.70;98.00;;;;;;5033331;28;20541;-66
2023/07/24 08:34:47;;;;;;;7.53;4.13;;;22.60;98.00;;;;;;5033098;28;20929;-66
2023/07/24 08:37:16;;;;;;;8.10;4.10;;;22.60;98.00;;;;;;5032971;28;20458;-66
2023/07/24 08:39:43;;;;;;;8.53;4.13;;;22.50;98.00;;;;;;5032823;28;20482;-66
2023/07/24 08:42:11;;;;;;;9.50;4.53;;;22.40;98.00;;;;;;5015193;28;20454;-66
2023/07/24 08:44:39;;;;;;;9.67;4.60;;;22.20;98.00;;;;;;5032743;28;20459;-66
2023/07/24 08:47:10;;;;;;;7.90;4.17;;;22.30;98.00;;;;;;5017261;28;20506;-66
2023/07/24 08:49:39;;;;;;;10.23;4.87;;;22.20;98.00;;;;;;5012943;28;20459;-66
2023/07/24 08:52:07;;;;;;;9.33;4.93;;;22.10;98.00;;;;;;5013947;28;20455;-66
2023/07/24 08:54:37;;;;;;;11.10;5.00;;;22.10;98.00;;;;;;5033011;28;20517;-66
2023/07/24 08:57:07;;;;;;;12.27;4.60;;;22.00;98.00;;;;;;5032413;28;20455;-66
2023/07/24 08:59:34;;;;;;;11.63;5.13;;;22.00;98.00;;;;;;5032270;28;20494;-66
2023/07/24 09:02:03;;;;;;;9.63;4.87;;;22.10;98.00;;;;;;5032709;28;20869;-66
2023/07/24 09:04:31;;;;;;;9.23;4.33;;;22.00;98.00;;;;;;5032990;28;20458;-66
2023/07/24 09:06:59;;;;;;;11.50;5.13;;;21.90;98.00;;;;;;5032910;28;20541;-66
2023/07/24 09:09:31;;;;;;;8.43;4.53;;;22.00;98.00;;;;;;5032981;28;20517;-66
2023/07/24 09:12:00;;;;;;;11.10;4.87;;;22.00;98.00;;;;;;5031250;28;20580;-66
2023/07/24 09:14:30;;;;;;;8.30;4.33;;;22.00;98.00;;;;;;5028768;28;20457;-65
2023/07/24 09:17:05;;;;;;;9.20;4.80;;;22.10;98.00;;;;;;5032077;28;21086;-66
2023/07/24 09:19:32;;;;;;;9.97;4.47;;;22.10;98.00;;;;;;5031729;28;20505;-66
2023/07/24 09:22:10;;;;;;;11.10;4.60;;;22.20;98.00;;;;;;5031672;28;20872;-66
2023/07/24 09:24:37;;;;;;;8.77;4.40;;;22.20;98.00;;;;;;5032185;28;20477;-66
2023/07/24 09:27:07;;;;;;;7.97;4.73;;;22.40;98.00;;;;;;5032315;28;20481;-66
2023/07/24 09:29:35;;;;;;;9.80;4.77;;;22.50;98.00;;;;;;5032597;28;20462;-64
2023/07/24 09:32:06;;;;;;;9.83;5.43;;;22.60;98.00;;;;;;5032216;28;20455;-66
2023/07/24 09:34:33;;;;;;;8.23;4.53;;;22.60;98.00;;;;;;5031545;28;20458;-66
2023/07/24 09:37:00;;;;;;;10.03;4.60;;;22.70;98.00;;;;;;5032133;28;20509;-67
2023/07/24 09:39:29;;;;;;;10.30;4.40;;;22.90;98.00;;;;;;5032333;28;20980;-66
2023/07/24 09:42:04;;;;;;;10.50;4.87;;;23.10;98.00;;;;;;5032079;28;20960;-67
2023/07/24 09:44:41;;;;;;;11.83;4.50;;;23.40;98.00;;;;;;5032265;28;20494;-66
2023/07/24 09:47:08;;;;;;;11.80;5.10;;;23.40;98.00;;;;;;5032361;28;20521;-66
2023/07/24 09:49:35;;;;;;;10.33;4.87;;;23.50;98.00;;;;;;5032202;28;20467;-67
2023/07/24 09:52:09;;;;;;;9.20;5.03;;;23.40;98.00;;;;;;5032128;28;20458;-66
2023/07/24 09:54:45;;;;;;;11.60;4.80;;;23.40;98.00;;;;;;5032076;28;20466;-67
2023/07/24 09:57:14;;;;;;;9.27;4.80;;;23.20;98.00;;;;;;5031355;28;20458;-66
2023/07/24 09:59:43;;;;;;;8.37;4.40;;;23.10;98.00;;;;;;5031770;28;20836;-67
2023/07/24 10:02:13;;;;;;;10.07;4.60;;;23.00;98.00;;;;;;5031555;28;20462;-67
2023/07/24 10:04:41;;;;;;;8.10;4.30;;;22.80;98.00;;;;;;5014533;28;20454;-67
2023/07/24 10:07:09;;;;;;;9.63;4.73;;;22.70;98.00;;;;;;5031774;28;20505;-66
2023/07/24 10:09:37;;;;;;;9.93;5.30;;;22.50;98.00;;;;;;5031901;28;20462;-67
2023/07/24 10:12:12;;;;;;;6.97;4.33;;;22.40;98.00;;;;;;5031599;28;20513;-67
2023/07/24 10:14:39;;;;;;;9.10;5.00;;;22.30;98.00;;;;;;5031333;28;20462;-67
2023/07/24 10:17:08;;;;;;;11.83;4.80;;;22.30;98.00;;;;;;5031987;28;20459;-67
2023/07/24 10:19:40;;;;;;;11.90;4.70;;;22.20;98.00;;;;;;5025126;28;20483;-66
2023/07/24 10:22:10;;;;;;;8.40;5.00;;;22.20;98.00;;;;;;5012259;28;20505;-67
2023/07/24 10:24:37;;;;;;;11.97;4.80;;;22.10;98.00;;;;;;5011915;28;20981;-67
2023/07/24 10:27:05;;;;;;;8.17;4.37;;;22.00;98.00;;;;;;5011845;28;20506;-67
2023/07/24 10:29:36;;;;;;;8.13;4.53;;;22.00;98.00;;;;;;5012012;28;20476;-66
2023/07/24 10:32:04;;;;;;;8.57;4.87;;;22.00;98.00;;;;;;5012010;28;20467;-67
2023/07/24 10:34:42;;;;;;;8.47;4.53;;;22.10;98.00;;;;;;5011923;28;20880;-67
2023/07/24 10:37:10;;;;;;;17.30;4.47;;;22.00;98.00;;;;;;5011681;28;20470;-67
2023/07/24 10:39:41;;;;;;;9.00;4.93;;;21.90;98.00;;;;;;5011606;28;20523;-66
2023/07/24 10:42:10;;;;;;;8.13;4.30;;;21.90;98.00;;;;;;5012104;28;20543;-66
2023/07/24 10:44:41;;;;;;;9.80;4.50;;;21.70;98.00;;;;;;5011854;28;20459;-66
2023/07/24 10:47:08;;;;;;;8.93;4.60;;;21.60;98.00;;;;;;5011907;28;20468;-67
2023/07/24 10:49:36;;;;;;;10.03;4.37;;;21.50;98.00;;;;;;5011659;28;20452;-67
2023/07/24 10:52:05;;;;;;;7.33;3.70;;;21.40;98.00;;;;;;5011793;28;20491;-67
2023/07/24 10:54:33;;;;;;;8.47;3.97;;;21.40;98.00;;;;;;5011713;28;20448;-67
2023/07/24 10:57:01;;;;;;;8.00;4.30;;;21.30;98.00;;;;;;5011784;28;20538;-67
2023/07/24 10:59:38;;;;;;;8.90;4.73;;;21.30;98.00;;;;;;5011565;28;21001;-67
2023/07/24 11:02:05;;;;;;;6.97;3.90;;;21.30;98.00;;;;;;5022519;28;20536;-66
2023/07/24 11:04:33;;;;;;;9.00;4.20;;;21.40;98.00;;;;;;5031552;28;20455;-67
2023/07/24 11:07:01;;;;;;;8.27;4.40;;;21.40;98.00;;;;;;5031372;28;20499;-64
2023/07/24 11:09:41;;;;;;;10.30;3.70;;;21.30;98.00;;;;;;5031426;28;20458;-64
2023/07/24 11:12:13;;;;;;;8.50;4.40;;;21.20;98.00;;;;;;5031186;28;20524;-63
2023/07/24 11:14:55;;;;;;;10.30;3.73;;;21.10;98.00;;;;;;5017659;28;20937;-63
2023/07/24 11:17:22;;;;;;;7.60;4.13;;;21.00;98.00;;;;;;5011041;28;20547;-63
2023/07/24 11:19:49;;;;;;;9.70;4.00;;;20.90;98.00;;;;;;5011878;28;20989;-64
2023/07/24 11:22:22;;;;;;;8.93;3.63;;;20.80;98.00;;;;;;5014539;28;20448;-63
2023/07/24 11:24:50;;;;;;;7.70;4.13;;;20.80;98.00;;;;;;5015305;28;20922;-63
2023/07/24 11:27:19;;;;;;;9.40;4.20;;;20.60;98.00;;;;;;5031286;28;20532;-63
2023/07/24 11:29:50;;;;;;;8.30;3.90;;;20.60;98.00;;;;;;5034859;28;20462;-63
2023/07/24 11:32:19;;;;;;;9.40;3.93;;;20.60;98.00;;;;;;5034712;28;20545;-63
2023/07/24 11:34:47;;;;;;;8.93;4.57;;;20.60;98.00;;;;;;5034694;28;20871;-64
2023/07/24 11:37:15;;;;;;;8.20;3.80;;;20.60;98.00;;;;;;5034653;28;20462;-63
2023/07/24 11:42:19;;;;;;;8.57;4.27;;;20.70;98.00;;;;;;5124565;22;20496;-63
2023/07/24 11:44:46;;;;;;;6.87;3.90;;;20.60;98.00;;;;;;5053737;28;20467;-63
2023/07/24 11:47:13;;;;;;;12.33;4.57;;;20.60;98.00;;;;;;5240285;22;21235;-63
2023/07/24 11:49:47;;;;;;;6.30;3.60;;;20.70;98.00;;;;;;5034440;28;20512;-64
2023/07/24 11:52:15;;;;;;;8.30;4.17;;;20.70;98.00;;;;;;5034437;28;20450;-63
2023/07/24 11:54:42;;;;;;;5.73;3.80;;;20.80;98.00;;;;;;5034323;28;20470;-63
2023/07/24 11:57:16;;;;;;;7.67;4.00;;;21.00;98.00;;;;;;5033467;28;20461;-63
2023/07/24 11:59:49;;;;;;;7.23;4.10;;;21.30;98.00;;;;;;5033506;28;20549;-64
2023/07/24 12:02:16;;;;;;;5.97;3.90;;;21.70;98.00;;;;;;5033419;28;20451;-64
2023/07/24 12:04:43;;;;;;;9.50;3.93;;;22.60;98.00;;;;;;5033608;28;20662;-65
2023/07/24 12:07:10;;;;;;;6.30;3.83;;;23.20;98.00;;;;;;5033731;28;20464;-64
2023/07/24 12:09:37;;;;;;;5.87;3.47;;;23.40;98.00;;;;;;5033581;28;20455;-63
2023/07/24 12:12:05;;;;;;;7.97;4.43;;;23.50;98.00;;;;;;5033775;28;20794;-64
2023/07/24 12:14:33;;;;;;;6.90;3.57;;;23.40;98.00;;;;;;5033580;28;20545;-64
2023/07/24 12:17:09;;;;;;;8.77;3.90;;;23.20;98.00;;;;;;5033228;28;20467;-64
2023/07/24 12:19:37;;;;;;;8.20;3.90;;;22.90;98.00;;;;;;5033321;28;20568;-65
2023/07/24 12:22:07;;;;;;;9.30;4.50;;;22.70;98.00;;;;;;5033251;28;20542;-65
2023/07/24 12:24:34;;;;;;;7.63;4.17;;;22.50;98.00;;;;;;5033471;28;20461;-66
2023/07/24 12:27:01;;;;;;;8.27;4.40;;;22.50;98.00;;;;;;5032976;28;20462;-65
2023/07/24 12:29:28;;;;;;;7.17;3.80;;;22.40;98.00;;;;;;5032951;28;20521;-64
2023/07/24 12:31:55;;;;;;;6.47;3.60;;;22.60;98.00;;;;;;5032091;28;20455;-64
2023/07/24 12:34:23;;;;;;;9.13;3.97;;;22.80;98.00;;;;;;5032961;28;20817;-65
2023/07/24 12:36:51;;;;;;;6.37;3.50;;;22.80;98.00;;;;;;5032821;28;21103;-64
2023/07/24 12:39:20;;;;;;;6.87;4.00;;;22.80;98.00;;;;;;5033093;28;20454;-65
2023/07/24 12:41:47;;;;;;;7.87;3.70;;;23.00;98.00;;;;;;5015657;28;20490;-64
2023/07/24 12:44:14;;;;;;;6.87;3.77;;;23.40;98.00;;;;;;5033817;28;20458;-65
2023/07/24 12:46:41;;;;;;;7.33;4.00;;;23.70;98.00;;;;;;5026195;28;20822;-64
2023/07/24 12:49:08;;;;;;;6.47;3.40;;;24.00;98.00;;;;;;5053595;28;20461;-63
2023/07/24 12:51:37;;;;;;;6.73;3.93;;;24.10;98.00;;;;;;5053254;28;20967;-62
2023/07/24 12:54:04;;;;;;;8.27;3.80;;;24.10;98.00;;;;;;5053612;28;20931;-63